sensor_id;sensor_type;location;lat;lon;timestamp;pressure;altitude;pressure_sealevel;temperature;humidity
48424;BME280;34232;42.502;26.014;2023-04-22T00:01:41;99847.69;;;11.21;73.37
48424;BME280;34232;42.502;26.014;2023-04-22T00:04:06;99841.84;;;11.08;73.62
48424;BME280;34232;42.502;26.014;2023-04-22T00:06:32;99847.09;;;10.99;73.70
48424;BME280;34232;42.502;26.014;2023-04-22T00:08:58;99849.53;;;10.91;73.93
48424;BME280;34232;42.502;26.014;2023-04-22T00:11:23;99845.91;;;10.82;74.07
48424;BME280;34232;42.502;26.014;2023-04-22T00:13:48;99858.63;;;10.77;74.96
48424;BME280;34232;42.502;26.014;2023-04-22T00:16:14;99851.56;;;10.68;75.10
48424;BME280;34232;42.502;26.014;2023-04-22T00:18:39;99849.44;;;10.62;75.20
48424;BME280;34232;42.502;26.014;2023-04-22T00:21:05;99852.44;;;10.57;75.39
48424;BME280;34232;42.502;26.014;2023-04-22T00:23:31;99850.22;;;10.52;75.56
48424;BME280;34232;42.502;26.014;2023-04-22T00:25:56;99859.34;;;10.48;76.47
48424;BME280;34232;42.502;26.014;2023-04-22T00:28:22;99852.16;;;10.50;76.28
48424;BME280;34232;42.502;26.014;2023-04-22T00:30:47;99850.88;;;10.45;76.64
48424;BME280;34232;42.502;26.014;2023-04-22T00:33:12;99847.16;;;10.47;76.81
48424;BME280;34232;42.502;26.014;2023-04-22T00:35:37;99847.16;;;10.47;76.73
48424;BME280;34232;42.502;26.014;2023-04-22T00:38:03;99841.88;;;10.47;76.60
48424;BME280;34232;42.502;26.014;2023-04-22T00:40:28;99842.97;;;10.45;77.36
48424;BME280;34232;42.502;26.014;2023-04-22T00:42:53;99843.09;;;10.43;77.25
48424;BME280;34232;42.502;26.014;2023-04-22T00:45:19;99836.72;;;10.36;77.27
48424;BME280;34232;42.502;26.014;2023-04-22T00:47:45;99839.41;;;10.25;77.02
48424;BME280;34232;42.502;26.014;2023-04-22T00:50:11;99834.53;;;10.21;76.97
48424;BME280;34232;42.502;26.014;2023-04-22T00:52:36;99832.13;;;10.17;77.11
48424;BME280;34232;42.502;26.014;2023-04-22T00:55:01;99834.19;;;10.14;77.02
48424;BME280;34232;42.502;26.014;2023-04-22T00:57:27;99841.38;;;10.12;77.93
48424;BME280;34232;42.502;26.014;2023-04-22T00:59:53;99842.19;;;10.12;78.44
48424;BME280;34232;42.502;26.014;2023-04-22T01:02:19;99843.88;;;10.13;78.29
48424;BME280;34232;42.502;26.014;2023-04-22T01:04:45;99848.56;;;10.10;78.91
48424;BME280;34232;42.502;26.014;2023-04-22T01:07:10;99846.31;;;9.85;79.28
48424;BME280;34232;42.502;26.014;2023-04-22T01:09:35;99840.03;;;9.97;79.49
48424;BME280;34232;42.502;26.014;2023-04-22T01:12:02;99843.13;;;10.02;79.14
48424;BME280;34232;42.502;26.014;2023-04-22T01:14:27;99840.72;;;9.99;79.10
48424;BME280;34232;42.502;26.014;2023-04-22T01:16:53;99839.91;;;9.98;79.56
48424;BME280;34232;42.502;26.014;2023-04-22T01:19:19;99840.72;;;9.99;79.74
48424;BME280;34232;42.502;26.014;2023-04-22T01:21:44;99841.81;;;9.96;79.92
48424;BME280;34232;42.502;26.014;2023-04-22T01:24:11;99845.53;;;9.94;79.15
48424;BME280;34232;42.502;26.014;2023-04-22T01:26:36;99838.09;;;9.99;78.73
48424;BME280;34232;42.502;26.014;2023-04-22T01:29:02;99835.47;;;9.99;78.02
48424;BME280;34232;42.502;26.014;2023-04-22T01:31:28;99835.34;;;10.00;78.06
48424;BME280;34232;42.502;26.014;2023-04-22T01:33:53;99829.97;;;10.02;78.44
48424;BME280;34232;42.502;26.014;2023-04-22T01:36:19;99837.72;;;10.03;77.97
48424;BME280;34232;42.502;26.014;2023-04-22T01:38:44;99835.81;;;10.05;78.02
48424;BME280;34232;42.502;26.014;2023-04-22T01:41:10;99834.97;;;10.05;77.94
48424;BME280;34232;42.502;26.014;2023-04-22T01:43:35;99834.97;;;10.05;78.23
48424;BME280;34232;42.502;26.014;2023-04-22T01:46:01;99831.88;;;10.00;77.30
48424;BME280;34232;42.502;26.014;2023-04-22T01:48:26;99837.63;;;9.94;76.99
48424;BME280;34232;42.502;26.014;2023-04-22T01:50:52;99829.09;;;9.80;76.99
48424;BME280;34232;42.502;26.014;2023-04-22T01:53:17;99833.66;;;9.78;77.25
48424;BME280;34232;42.502;26.014;2023-04-22T01:55:42;99831.97;;;9.77;77.55
48424;BME280;34232;42.502;26.014;2023-04-22T01:58:08;99833.91;;;9.75;77.47
48424;BME280;34232;42.502;26.014;2023-04-22T02:00:33;99834.63;;;9.77;77.38
48424;BME280;34232;42.502;26.014;2023-04-22T02:02:58;99827.31;;;9.81;76.90
48424;BME280;34232;42.502;26.014;2023-04-22T02:05:24;99826.72;;;9.77;76.26
48424;BME280;34232;42.502;26.014;2023-04-22T02:07:53;99829.59;;;9.74;76.38
48424;BME280;34232;42.502;26.014;2023-04-22T02:10:18;99823.19;;;9.67;76.67
48424;BME280;34232;42.502;26.014;2023-04-22T02:12:44;99827.75;;;9.65;77.50
48424;BME280;34232;42.502;26.014;2023-04-22T02:15:09;99827.03;;;9.63;77.53
48424;BME280;34232;42.502;26.014;2023-04-22T02:17:35;99823.50;;;9.53;78.57
48424;BME280;34232;42.502;26.014;2023-04-22T02:20:01;99822.31;;;9.57;78.43
48424;BME280;34232;42.502;26.014;2023-04-22T02:22:26;99817.72;;;9.59;78.59
48424;BME280;34232;42.502;26.014;2023-04-22T02:24:53;99827.41;;;9.59;78.41
48424;BME280;34232;42.502;26.014;2023-04-22T02:27:18;99821.84;;;9.52;78.74
48424;BME280;34232;42.502;26.014;2023-04-22T02:29:43;99817.66;;;9.50;78.75
48424;BME280;34232;42.502;26.014;2023-04-22T02:32:09;99818.41;;;9.40;78.85
48424;BME280;34232;42.502;26.014;2023-04-22T02:34:35;99818.25;;;9.42;78.61
48424;BME280;34232;42.502;26.014;2023-04-22T02:37:00;99810.66;;;9.39;79.09
48424;BME280;34232;42.502;26.014;2023-04-22T02:39:25;99812.81;;;9.34;79.44
48424;BME280;34232;42.502;26.014;2023-04-22T02:41:51;99811.16;;;9.33;79.17
48424;BME280;34232;42.502;26.014;2023-04-22T02:44:16;99810.31;;;9.32;78.84
48424;BME280;34232;42.502;26.014;2023-04-22T02:46:41;99812.34;;;9.29;79.37
48424;BME280;34232;42.502;26.014;2023-04-22T02:49:06;99809.00;;;9.27;79.86
48424;BME280;34232;42.502;26.014;2023-04-22T02:51:32;99806.38;;;9.27;79.23
48424;BME280;34232;42.502;26.014;2023-04-22T02:53:57;99808.75;;;9.30;79.87
48424;BME280;34232;42.502;26.014;2023-04-22T02:56:22;99808.16;;;9.37;79.41
48424;BME280;34232;42.502;26.014;2023-04-22T02:58:48;99812.06;;;9.43;79.22
48424;BME280;34232;42.502;26.014;2023-04-22T03:01:13;99814.19;;;9.49;79.14
48424;BME280;34232;42.502;26.014;2023-04-22T03:03:38;99820.88;;;9.53;79.57
48424;BME280;34232;42.502;26.014;2023-04-22T03:06:04;99826.84;;;9.55;79.48
48424;BME280;34232;42.502;26.014;2023-04-22T03:08:30;99820.88;;;9.53;78.50
48424;BME280;34232;42.502;26.014;2023-04-22T03:10:55;99823.03;;;9.48;77.81
48424;BME280;34232;42.502;26.014;2023-04-22T03:13:22;99818.97;;;9.44;77.58
48424;BME280;34232;42.502;26.014;2023-04-22T03:15:47;99820.88;;;9.10;78.06
48424;BME280;34232;42.502;26.014;2023-04-22T03:18:13;99820.50;;;9.15;78.71
48424;BME280;34232;42.502;26.014;2023-04-22T03:20:38;99818.94;;;9.12;79.23
48424;BME280;34232;42.502;26.014;2023-04-22T03:23:03;99825.88;;;9.13;79.68
48424;BME280;34232;42.502;26.014;2023-04-22T03:25:31;99821.59;;;9.01;79.82
48424;BME280;34232;42.502;26.014;2023-04-22T03:27:56;99816.84;;;8.95;79.84
48424;BME280;34232;42.502;26.014;2023-04-22T03:30:21;99828.19;;;8.95;80.73
48424;BME280;34232;42.502;26.014;2023-04-22T03:32:46;99836.53;;;9.00;81.37
48424;BME280;34232;42.502;26.014;2023-04-22T03:35:12;99843.22;;;9.04;82.42
48424;BME280;34232;42.502;26.014;2023-04-22T03:37:37;99849.91;;;9.08;83.06
48424;BME280;34232;42.502;26.014;2023-04-22T03:40:02;99858.47;;;9.10;83.60
48424;BME280;34232;42.502;26.014;2023-04-22T03:42:29;99857.97;;;9.17;83.61
48424;BME280;34232;42.502;26.014;2023-04-22T03:44:55;99855.25;;;9.18;83.42
48424;BME280;34232;42.502;26.014;2023-04-22T03:47:20;99857.28;;;9.15;83.77
48424;BME280;34232;42.502;26.014;2023-04-22T03:49:45;99859.28;;;9.22;83.48
48424;BME280;34232;42.502;26.014;2023-04-22T03:52:10;99862.25;;;9.29;83.15
48424;BME280;34232;42.502;26.014;2023-04-22T03:54:36;99860.09;;;9.34;83.16
48424;BME280;34232;42.502;26.014;2023-04-22T03:57:01;99865.13;;;9.37;82.96
48424;BME280;34232;42.502;26.014;2023-04-22T03:59:26;99864.78;;;9.19;83.97
48424;BME280;34232;42.502;26.014;2023-04-22T04:01:52;99863.91;;;9.30;84.23
48424;BME280;34232;42.502;26.014;2023-04-22T04:04:18;99866.53;;;9.41;84.36
48424;BME280;34232;42.502;26.014;2023-04-22T04:06:43;99875.59;;;9.48;84.41
48424;BME280;34232;42.502;26.014;2023-04-22T04:09:08;99884.38;;;9.58;84.72
48424;BME280;34232;42.502;26.014;2023-04-22T04:11:33;99889.75;;;9.68;84.56
48424;BME280;34232;42.502;26.014;2023-04-22T04:13:59;99895.31;;;9.74;84.60
48424;BME280;34232;42.502;26.014;2023-04-22T04:16:24;99897.09;;;9.85;84.99
48424;BME280;34232;42.502;26.014;2023-04-22T04:18:49;99893.31;;;9.99;84.69
48424;BME280;34232;42.502;26.014;2023-04-22T04:21:15;99891.66;;;9.98;85.17
48424;BME280;34232;42.502;26.014;2023-04-22T04:23:40;99892.31;;;10.11;84.38
48424;BME280;34232;42.502;26.014;2023-04-22T04:26:06;99895.19;;;10.19;83.83
48424;BME280;34232;42.502;26.014;2023-04-22T04:28:31;99894.16;;;10.31;82.65
48424;BME280;34232;42.502;26.014;2023-04-22T04:30:58;99893.94;;;10.44;81.63
48424;BME280;34232;42.502;26.014;2023-04-22T04:33:24;99897.31;;;10.56;81.63
48424;BME280;34232;42.502;26.014;2023-04-22T04:35:49;99891.03;;;10.68;81.33
48424;BME280;34232;42.502;26.014;2023-04-22T04:38:15;99887.88;;;10.74;81.49
48424;BME280;34232;42.502;26.014;2023-04-22T04:40:40;99904.56;;;10.84;81.31
48424;BME280;34232;42.502;26.014;2023-04-22T04:43:07;99904.34;;;11.06;81.39
48424;BME280;34232;42.502;26.014;2023-04-22T04:45:33;99891.94;;;11.28;79.95
48424;BME280;34232;42.502;26.014;2023-04-22T04:48:00;99900.03;;;11.36;78.31
48424;BME280;34232;42.502;26.014;2023-04-22T04:50:26;99897.66;;;11.42;78.21
48424;BME280;34232;42.502;26.014;2023-04-22T04:52:52;99902.81;;;11.44;77.58
48424;BME280;34232;42.502;26.014;2023-04-22T04:55:17;99890.47;;;11.35;77.58
48424;BME280;34232;42.502;26.014;2023-04-22T04:57:43;99889.38;;;11.47;77.37
48424;BME280;34232;42.502;26.014;2023-04-22T05:00:08;99891.56;;;11.42;77.25
48424;BME280;34232;42.502;26.014;2023-04-22T05:02:34;99896.00;;;11.32;77.17
48424;BME280;34232;42.502;26.014;2023-04-22T05:05:00;99890.81;;;11.20;78.48
48424;BME280;34232;42.502;26.014;2023-04-22T05:07:25;99903.47;;;11.27;79.61
48424;BME280;34232;42.502;26.014;2023-04-22T05:09:50;99893.88;;;11.26;80.01
48424;BME280;34232;42.502;26.014;2023-04-22T05:12:15;99896.78;;;11.22;80.03
48424;BME280;34232;42.502;26.014;2023-04-22T05:14:41;99899.41;;;11.22;80.10
48424;BME280;34232;42.502;26.014;2023-04-22T05:17:06;99896.53;;;11.26;80.23
48424;BME280;34232;42.502;26.014;2023-04-22T05:19:32;99902.19;;;11.21;80.91
48424;BME280;34232;42.502;26.014;2023-04-22T05:21:57;99894.59;;;11.28;82.16
48424;BME280;34232;42.502;26.014;2023-04-22T05:24:22;99906.50;;;11.22;81.67
48424;BME280;34232;42.502;26.014;2023-04-22T05:26:48;99903.00;;;11.21;81.87
48424;BME280;34232;42.502;26.014;2023-04-22T05:29:13;99907.94;;;11.36;82.93
48424;BME280;34232;42.502;26.014;2023-04-22T05:31:39;99919.84;;;11.40;83.64
48424;BME280;34232;42.502;26.014;2023-04-22T05:34:04;99914.09;;;11.65;83.01
48424;BME280;34232;42.502;26.014;2023-04-22T05:36:29;99919.78;;;11.70;83.79
48424;BME280;34232;42.502;26.014;2023-04-22T05:38:55;99918.81;;;11.71;84.21
48424;BME280;34232;42.502;26.014;2023-04-22T05:41:21;99921.63;;;11.79;83.10
48424;BME280;34232;42.502;26.014;2023-04-22T05:43:46;99924.97;;;11.91;82.62
48424;BME280;34232;42.502;26.014;2023-04-22T05:46:11;99927.19;;;11.96;81.98
48424;BME280;34232;42.502;26.014;2023-04-22T05:48:36;99922.34;;;12.01;82.36
48424;BME280;34232;42.502;26.014;2023-04-22T05:51:02;99939.44;;;12.16;82.59
48424;BME280;34232;42.502;26.014;2023-04-22T05:53:27;99933.44;;;12.33;83.41
48424;BME280;34232;42.502;26.014;2023-04-22T05:55:52;99929.66;;;12.55;82.67
48424;BME280;34232;42.502;26.014;2023-04-22T05:58:18;99923.38;;;12.66;81.62
48424;BME280;34232;42.502;26.014;2023-04-22T06:00:43;99933.13;;;12.65;79.87
48424;BME280;34232;42.502;26.014;2023-04-22T06:03:08;99939.63;;;12.71;79.32
48424;BME280;34232;42.502;26.014;2023-04-22T06:05:33;99934.63;;;12.77;80.09
48424;BME280;34232;42.502;26.014;2023-04-22T06:07:59;99940.41;;;12.90;79.98
48424;BME280;34232;42.502;26.014;2023-04-22T06:10:27;99926.88;;;13.03;78.65
48424;BME280;34232;42.502;26.014;2023-04-22T06:12:52;99939.75;;;13.25;78.67
48424;BME280;34232;42.502;26.014;2023-04-22T06:15:18;99930.81;;;13.54;75.94
48424;BME280;34232;42.502;26.014;2023-04-22T06:17:43;99940.91;;;13.68;75.24
48424;BME280;34232;42.502;26.014;2023-04-22T06:20:09;99941.28;;;13.73;74.85
48424;BME280;34232;42.502;26.014;2023-04-22T06:22:35;99932.09;;;13.95;76.55
48424;BME280;34232;42.502;26.014;2023-04-22T06:25:00;99935.72;;;14.12;73.64
48424;BME280;34232;42.502;26.014;2023-04-22T06:27:26;99939.34;;;14.46;73.46
48424;BME280;34232;42.502;26.014;2023-04-22T06:29:51;99941.19;;;14.72;73.02
48424;BME280;34232;42.502;26.014;2023-04-22T06:32:16;99945.53;;;14.81;69.50
48424;BME280;34232;42.502;26.014;2023-04-22T06:34:41;99955.53;;;14.87;68.96
48424;BME280;34232;42.502;26.014;2023-04-22T06:37:07;99953.50;;;14.81;69.00
48424;BME280;34232;42.502;26.014;2023-04-22T06:39:32;99954.13;;;14.75;69.71
48424;BME280;34232;42.502;26.014;2023-04-22T06:41:57;99957.38;;;14.68;70.47
48424;BME280;34232;42.502;26.014;2023-04-22T06:44:25;99962.94;;;14.57;71.53
48424;BME280;34232;42.502;26.014;2023-04-22T06:46:51;99960.44;;;14.82;70.93
48424;BME280;34232;42.502;26.014;2023-04-22T06:49:16;99962.50;;;14.88;72.11
48424;BME280;34232;42.502;26.014;2023-04-22T06:51:41;99965.91;;;15.06;71.71
48424;BME280;34232;42.502;26.014;2023-04-22T06:54:06;99962.69;;;15.20;72.19
48424;BME280;34232;42.502;26.014;2023-04-22T06:56:32;99961.03;;;14.93;73.15
48424;BME280;34232;42.502;26.014;2023-04-22T06:58:57;99967.13;;;14.86;73.81
48424;BME280;34232;42.502;26.014;2023-04-22T07:01:22;99964.72;;;14.75;74.41
48424;BME280;34232;42.502;26.014;2023-04-22T07:03:50;99960.00;;;14.60;75.44
48424;BME280;34232;42.502;26.014;2023-04-22T07:06:16;99970.19;;;14.73;75.76
48424;BME280;34232;42.502;26.014;2023-04-22T07:08:41;99967.13;;;14.86;75.16
48424;BME280;34232;42.502;26.014;2023-04-22T07:11:07;99976.00;;;15.02;74.43
48424;BME280;34232;42.502;26.014;2023-04-22T07:13:32;99971.63;;;15.19;73.72
48424;BME280;34232;42.502;26.014;2023-04-22T07:15:58;99968.34;;;15.25;73.47
48424;BME280;34232;42.502;26.014;2023-04-22T07:18:24;99975.34;;;15.34;72.96
48424;BME280;34232;42.502;26.014;2023-04-22T07:20:49;99972.41;;;15.46;72.75
48424;BME280;34232;42.502;26.014;2023-04-22T07:23:15;99975.09;;;15.54;72.80
48424;BME280;34232;42.502;26.014;2023-04-22T07:25:40;99971.44;;;15.55;72.35
48424;BME280;34232;42.502;26.014;2023-04-22T07:28:05;99973.63;;;15.59;72.32
48424;BME280;34232;42.502;26.014;2023-04-22T07:30:33;99964.84;;;15.59;72.23
48424;BME280;34232;42.502;26.014;2023-04-22T07:32:58;99973.19;;;15.04;73.77
48424;BME280;34232;42.502;26.014;2023-04-22T07:35:23;99974.59;;;14.90;75.57
48424;BME280;34232;42.502;26.014;2023-04-22T07:37:49;99976.34;;;14.82;76.85
48424;BME280;34232;42.502;26.014;2023-04-22T07:40:15;99978.34;;;14.62;78.84
48424;BME280;34232;42.502;26.014;2023-04-22T07:42:40;99978.66;;;14.77;77.46
48424;BME280;34232;42.502;26.014;2023-04-22T07:45:05;99978.28;;;14.72;78.62
48424;BME280;34232;42.502;26.014;2023-04-22T07:47:31;99983.69;;;14.88;78.69
48424;BME280;34232;42.502;26.014;2023-04-22T07:49:56;99983.81;;;15.04;77.63
48424;BME280;34232;42.502;26.014;2023-04-22T07:52:22;99990.13;;;15.11;76.32
48424;BME280;34232;42.502;26.014;2023-04-22T07:54:47;99990.56;;;15.24;75.64
48424;BME280;34232;42.502;26.014;2023-04-22T07:57:12;99984.16;;;15.43;75.10
48424;BME280;34232;42.502;26.014;2023-04-22T07:59:37;99990.03;;;15.55;73.40
48424;BME280;34232;42.502;26.014;2023-04-22T08:02:03;99984.13;;;15.69;71.59
48424;BME280;34232;42.502;26.014;2023-04-22T08:04:28;99984.50;;;15.74;71.60
48424;BME280;34232;42.502;26.014;2023-04-22T08:06:53;99981.00;;;15.73;70.84
48424;BME280;34232;42.502;26.014;2023-04-22T08:09:19;99978.50;;;15.72;71.21
48424;BME280;34232;42.502;26.014;2023-04-22T08:11:45;99991.13;;;15.78;71.77
48424;BME280;34232;42.502;26.014;2023-04-22T08:14:10;99990.72;;;15.57;73.56
48424;BME280;34232;42.502;26.014;2023-04-22T08:16:36;99999.34;;;15.59;74.46
48424;BME280;34232;42.502;26.014;2023-04-22T08:19:01;99998.09;;;15.71;73.88
48424;BME280;34232;42.502;26.014;2023-04-22T08:21:27;100009.31;;;15.65;72.87
48424;BME280;34232;42.502;26.014;2023-04-22T08:23:52;100005.06;;;15.72;73.32
48424;BME280;34232;42.502;26.014;2023-04-22T08:26:18;100003.69;;;15.68;73.43
48424;BME280;34232;42.502;26.014;2023-04-22T08:28:44;100004.06;;;15.81;73.06
48424;BME280;34232;42.502;26.014;2023-04-22T08:31:09;99994.81;;;15.85;72.04
48424;BME280;34232;42.502;26.014;2023-04-22T08:33:36;99996.00;;;15.99;71.84
48424;BME280;34232;42.502;26.014;2023-04-22T08:36:02;99994.13;;;15.91;70.98
48424;BME280;34232;42.502;26.014;2023-04-22T08:38:27;100000.13;;;15.85;71.17
48424;BME280;34232;42.502;26.014;2023-04-22T08:40:53;99992.53;;;16.06;71.08
48424;BME280;34232;42.502;26.014;2023-04-22T08:43:20;99996.69;;;16.25;72.42
48424;BME280;34232;42.502;26.014;2023-04-22T08:45:45;99988.59;;;16.35;71.70
48424;BME280;34232;42.502;26.014;2023-04-22T08:48:11;99988.25;;;16.46;70.21
48424;BME280;34232;42.502;26.014;2023-04-22T08:50:37;99984.94;;;16.60;70.35
48424;BME280;34232;42.502;26.014;2023-04-22T08:53:05;99989.28;;;16.69;69.94
48424;BME280;34232;42.502;26.014;2023-04-22T08:55:30;99994.94;;;16.83;68.73
48424;BME280;34232;42.502;26.014;2023-04-22T08:57:57;99991.25;;;16.92;68.38
48424;BME280;34232;42.502;26.014;2023-04-22T09:00:23;99988.25;;;16.95;67.29
48424;BME280;34232;42.502;26.014;2023-04-22T09:02:48;99992.22;;;17.07;67.96
48424;BME280;34232;42.502;26.014;2023-04-22T09:05:15;99993.53;;;17.11;68.57
48424;BME280;34232;42.502;26.014;2023-04-22T09:07:40;99989.22;;;17.18;67.75
48424;BME280;34232;42.502;26.014;2023-04-22T09:10:06;99981.25;;;17.10;66.84
48424;BME280;34232;42.502;26.014;2023-04-22T09:12:32;99977.56;;;17.19;67.51
48424;BME280;34232;42.502;26.014;2023-04-22T09:14:57;99982.34;;;17.24;68.00
48424;BME280;34232;42.502;26.014;2023-04-22T09:17:30;99975.19;;;17.32;66.97
48424;BME280;34232;42.502;26.014;2023-04-22T09:19:56;99979.47;;;17.41;67.24
48424;BME280;34232;42.502;26.014;2023-04-22T09:22:22;99974.81;;;17.43;65.80
48424;BME280;34232;42.502;26.014;2023-04-22T09:24:50;99978.66;;;17.41;65.12
48424;BME280;34232;42.502;26.014;2023-04-22T09:27:16;99970.81;;;17.47;64.86
48424;BME280;34232;42.502;26.014;2023-04-22T09:29:46;99967.44;;;17.54;65.58
48424;BME280;34232;42.502;26.014;2023-04-22T09:32:12;99970.09;;;17.62;63.83
48424;BME280;34232;42.502;26.014;2023-04-22T09:34:48;99966.94;;;17.66;63.95
48424;BME280;34232;42.502;26.014;2023-04-22T09:37:13;99966.03;;;17.82;65.78
48424;BME280;34232;42.502;26.014;2023-04-22T09:39:40;99953.59;;;17.97;63.92
48424;BME280;34232;42.502;26.014;2023-04-22T09:42:06;99956.88;;;18.07;63.80
48424;BME280;34232;42.502;26.014;2023-04-22T09:44:31;99959.63;;;18.37;67.19
48424;BME280;34232;42.502;26.014;2023-04-22T09:46:59;99953.22;;;18.69;61.42
48424;BME280;34232;42.502;26.014;2023-04-22T09:49:25;99949.31;;;19.09;58.66
48424;BME280;34232;42.502;26.014;2023-04-22T09:51:54;99954.75;;;19.30;55.67
48424;BME280;34232;42.502;26.014;2023-04-22T09:54:20;99940.28;;;19.39;53.46
48424;BME280;34232;42.502;26.014;2023-04-22T09:56:48;99946.84;;;19.51;53.70
48424;BME280;34232;42.502;26.014;2023-04-22T10:01:46;99933.16;;;19.97;54.24
48424;BME280;34232;42.502;26.014;2023-04-22T10:04:12;99924.78;;;20.21;52.26
48424;BME280;34232;42.502;26.014;2023-04-22T10:06:39;99923.63;;;20.31;50.21
48424;BME280;34232;42.502;26.014;2023-04-22T10:09:04;99921.50;;;20.41;51.19
48424;BME280;34232;42.502;26.014;2023-04-22T10:11:30;99918.16;;;20.60;51.93
48424;BME280;34232;42.502;26.014;2023-04-22T10:13:56;99919.31;;;20.51;50.82
48424;BME280;34232;42.502;26.014;2023-04-22T10:16:21;99917.34;;;20.66;48.88
48424;BME280;34232;42.502;26.014;2023-04-22T10:18:48;99915.41;;;20.81;48.50
48424;BME280;34232;42.502;26.014;2023-04-22T10:21:14;99907.16;;;20.76;50.45
48424;BME280;34232;42.502;26.014;2023-04-22T10:23:44;99902.72;;;20.90;48.55
48424;BME280;34232;42.502;26.014;2023-04-22T10:26:10;99908.56;;;21.07;49.13
48424;BME280;34232;42.502;26.014;2023-04-22T10:28:39;99900.63;;;20.85;45.78
48424;BME280;34232;42.502;26.014;2023-04-22T10:31:18;99904.56;;;20.89;48.15
48424;BME280;34232;42.502;26.014;2023-04-22T10:33:43;99894.50;;;20.91;46.81
48424;BME280;34232;42.502;26.014;2023-04-22T10:38:38;99891.00;;;21.32;46.17
48424;BME280;34232;42.502;26.014;2023-04-22T10:41:04;99876.22;;;21.49;45.30
48424;BME280;34232;42.502;26.014;2023-04-22T10:46:07;99886.47;;;21.33;45.61
48424;BME280;34232;42.502;26.014;2023-04-22T10:48:54;99888.94;;;21.34;42.98
48424;BME280;34232;42.502;26.014;2023-04-22T10:54:04;99875.13;;;20.89;43.21
48424;BME280;34232;42.502;26.014;2023-04-22T10:56:30;99879.59;;;20.82;42.39
48424;BME280;34232;42.502;26.014;2023-04-22T10:58:55;99882.59;;;21.01;44.36
48424;BME280;34232;42.502;26.014;2023-04-22T11:01:20;99877.53;;;21.19;42.99
48424;BME280;34232;42.502;26.014;2023-04-22T11:03:46;99876.03;;;21.51;43.59
48424;BME280;34232;42.502;26.014;2023-04-22T11:06:12;99876.00;;;21.38;42.91
48424;BME280;34232;42.502;26.014;2023-04-22T11:08:38;99883.19;;;21.37;42.64
48424;BME280;34232;42.502;26.014;2023-04-22T11:11:07;99879.09;;;21.41;42.61
48424;BME280;34232;42.502;26.014;2023-04-22T11:13:33;99888.13;;;21.34;44.20
48424;BME280;34232;42.502;26.014;2023-04-22T11:15:59;99888.44;;;21.17;40.03
48424;BME280;34232;42.502;26.014;2023-04-22T11:18:25;99890.91;;;21.19;41.92
48424;BME280;34232;42.502;26.014;2023-04-22T11:20:51;99895.81;;;21.09;42.67
48424;BME280;34232;42.502;26.014;2023-04-22T11:23:26;99888.19;;;21.06;42.63
48424;BME280;34232;42.502;26.014;2023-04-22T11:26:02;99885.81;;;20.89;43.15
48424;BME280;34232;42.502;26.014;2023-04-22T11:28:28;99888.63;;;20.75;41.87
48424;BME280;34232;42.502;26.014;2023-04-22T11:31:00;99889.97;;;20.64;43.71
48424;BME280;34232;42.502;26.014;2023-04-22T11:33:25;99890.91;;;20.50;43.23
48424;BME280;34232;42.502;26.014;2023-04-22T11:35:51;99883.91;;;20.49;44.39
48424;BME280;34232;42.502;26.014;2023-04-22T11:38:16;99889.13;;;20.36;43.85
48424;BME280;34232;42.502;26.014;2023-04-22T11:40:42;99890.44;;;20.40;45.31
48424;BME280;34232;42.502;26.014;2023-04-22T11:43:08;99896.88;;;20.31;43.50
48424;BME280;34232;42.502;26.014;2023-04-22T11:45:36;99892.44;;;20.16;44.42
48424;BME280;34232;42.502;26.014;2023-04-22T11:48:03;99886.41;;;20.08;42.47
48424;BME280;34232;42.502;26.014;2023-04-22T11:50:30;99887.75;;;19.97;41.76
48424;BME280;34232;42.502;26.014;2023-04-22T11:55:28;99878.41;;;20.08;42.52
48424;BME280;34232;42.502;26.014;2023-04-22T11:57:57;99887.44;;;20.07;41.45
48424;BME280;34232;42.502;26.014;2023-04-22T12:00:25;99881.53;;;20.11;40.46
48424;BME280;34232;42.502;26.014;2023-04-22T12:02:56;99881.94;;;20.15;42.08
48424;BME280;34232;42.502;26.014;2023-04-22T12:05:30;99879.47;;;20.13;39.80
48424;BME280;34232;42.502;26.014;2023-04-22T12:07:56;99871.97;;;20.02;39.22
48424;BME280;34232;42.502;26.014;2023-04-22T12:10:22;99873.59;;;19.97;39.99
48424;BME280;34232;42.502;26.014;2023-04-22T12:12:47;99874.72;;;19.87;40.80
48424;BME280;34232;42.502;26.014;2023-04-22T12:15:12;99864.09;;;19.94;41.73
48424;BME280;34232;42.502;26.014;2023-04-22T12:17:38;99877.69;;;19.99;42.80
48424;BME280;34232;42.502;26.014;2023-04-22T12:20:05;99874.38;;;19.97;43.42
48424;BME280;34232;42.502;26.014;2023-04-22T12:22:31;99879.13;;;19.95;42.12
48424;BME280;34232;42.502;26.014;2023-04-22T12:24:58;99879.69;;;19.90;42.68
48424;BME280;34232;42.502;26.014;2023-04-22T12:27:23;99869.44;;;19.94;43.38
48424;BME280;34232;42.502;26.014;2023-04-22T12:29:55;99871.69;;;19.97;44.44
48424;BME280;34232;42.502;26.014;2023-04-22T12:32:21;99874.78;;;19.94;42.98
48424;BME280;34232;42.502;26.014;2023-04-22T12:34:46;99873.69;;;19.88;43.85
48424;BME280;34232;42.502;26.014;2023-04-22T12:37:12;99870.53;;;19.78;43.57
48424;BME280;34232;42.502;26.014;2023-04-22T12:39:37;99863.91;;;19.74;43.13
48424;BME280;34232;42.502;26.014;2023-04-22T12:42:03;99874.13;;;19.71;43.03
48424;BME280;34232;42.502;26.014;2023-04-22T12:44:30;99875.41;;;19.75;43.46
48424;BME280;34232;42.502;26.014;2023-04-22T12:46:55;99876.94;;;19.63;42.08
48424;BME280;34232;42.502;26.014;2023-04-22T12:49:20;99872.34;;;19.56;41.62
48424;BME280;34232;42.502;26.014;2023-04-22T12:51:45;99868.56;;;19.51;42.95
48424;BME280;34232;42.502;26.014;2023-04-22T12:54:11;99864.78;;;19.45;40.47
48424;BME280;34232;42.502;26.014;2023-04-22T12:56:36;99859.44;;;19.45;41.19
48424;BME280;34232;42.502;26.014;2023-04-22T12:59:04;99857.06;;;19.50;41.26